<?xml version='1.0' encoding='UTF-8'?><gpx version="1.1" creator="JPX - https://github.com/jenetics/jpx" xmlns="http://www.topografix.com/GPX/1/1"><trk><trkseg><trkpt lat="51.0416977157382" lon="2.3783291939136237"><ele>5.0</ele><time>2026-04-10T19:25:57.999Z</time></trkpt><trkpt lat="51.04163388731126" lon="2.378340372016043"><ele>5.0</ele><time>2026-04-10T19:25:58.999Z</time></trkpt><trkpt lat="51.04156245532414" lon="2.378340762008242"><ele>5.0</ele><time>2026-04-10T19:25:59.999Z</time></trkpt><trkpt lat="51.04148193070818" lon="2.3783374358203697"><ele>5.0</ele><time>2026-04-10T19:26:00.999Z</time></trkpt><trkpt lat="51.04139801172495" lon="2.3782767735042194"><ele>5.0</ele><time>2026-04-10T19:26:01.999Z</time></trkpt><trkpt lat="51.04127618961472" lon="2.378308960337513"><ele>5.0</ele><time>2026-04-10T19:26:04Z</time></trkpt><trkpt lat="51.041180270761586" lon="2.3783343943779434"><ele>5.0</ele><time>2026-04-10T19:26:06Z</time></trkpt><trkpt lat="51.04108875719147" lon="2.378366131828294"><ele>5.0</ele><time>2026-04-10T19:26:08Z</time></trkpt><trkpt lat="51.041019981181364" lon="2.378354610350718"><ele>5.0</ele><time>2026-04-10T19:26:13Z</time></trkpt><trkpt lat="51.04095314715763" lon="2.3783685530094414"><ele>5.0</ele><time>2026-04-10T19:26:16Z</time></trkpt><trkpt lat="51.04086745981353" lon="2.378389485343905"><ele>5.0</ele><time>2026-04-10T19:26:18Z</time></trkpt><trkpt lat="51.040785118497276" lon="2.3784013951955063"><ele>5.0</ele><time>2026-04-10T19:26:20Z</time></trkpt><trkpt lat="51.04070804519881" lon="2.3783768595251877"><ele>5.0</ele><time>2026-04-10T19:26:22Z</time></trkpt><trkpt lat="51.04061565473521" lon="2.3783679898099033"><ele>5.0</ele><time>2026-04-10T19:26:24Z</time></trkpt><trkpt lat="51.04050937964865" lon="2.378362665899151"><ele>5.0</ele><time>2026-04-10T19:26:26Z</time></trkpt><trkpt lat="51.04044445176636" lon="2.3783571645638886"><ele>5.0</ele><time>2026-04-10T19:26:27Z</time></trkpt><trkpt lat="51.04033566796705" lon="2.3783438340560945"><ele>5.0</ele><time>2026-04-10T19:26:29Z</time></trkpt><trkpt lat="51.04024214721177" lon="2.3783298844053484"><ele>5.0</ele><time>2026-04-10T19:26:31Z</time></trkpt><trkpt lat="51.04015307383478" lon="2.378304233280841"><ele>5.0</ele><time>2026-04-10T19:26:33Z</time></trkpt><trkpt lat="51.040074335963475" lon="2.3783176310771355"><ele>5.0</ele><time>2026-04-10T19:26:35Z</time></trkpt><trkpt lat="51.04000217374961" lon="2.3783146994998905"><ele>5.0</ele><time>2026-04-10T19:26:37Z</time></trkpt><trkpt lat="51.03984287027377" lon="2.3784463739762325"><ele>5.0</ele><time>2026-04-10T19:26:39Z</time></trkpt><trkpt lat="51.039769553159296" lon="2.378376372913552"><ele>5.2</ele><time>2026-04-10T19:26:41Z</time></trkpt><trkpt lat="51.039694909143016" lon="2.378304412447737"><ele>5.4</ele><time>2026-04-10T19:26:43Z</time></trkpt><trkpt lat="51.03961118776208" lon="2.378220143422628"><ele>5.6</ele><time>2026-04-10T19:26:45Z</time></trkpt><trkpt lat="51.03954068337152" lon="2.3781357976682984"><ele>5.8</ele><time>2026-04-10T19:26:47Z</time></trkpt><trkpt lat="51.03945139875709" lon="2.378041788136718"><ele>6.0</ele><time>2026-04-10T19:26:49Z</time></trkpt><trkpt lat="51.03939285221046" lon="2.3779871660246754"><ele>6.0</ele><time>2026-04-10T19:26:50Z</time></trkpt><trkpt lat="51.0392906533471" lon="2.3778954666186887"><ele>6.0</ele><time>2026-04-10T19:26:52Z</time></trkpt><trkpt lat="51.039188235875024" lon="2.3778005506446753"><ele>6.0</ele><time>2026-04-10T19:26:54Z</time></trkpt><trkpt lat="51.03912794920449" lon="2.377742408559371"><ele>6.0</ele><time>2026-04-10T19:26:55Z</time></trkpt><trkpt lat="51.039069443922926" lon="2.3776876554426956"><ele>6.0</ele><time>2026-04-10T19:26:56Z</time></trkpt><trkpt lat="51.03896264976598" lon="2.377570746300253"><ele>6.199999999999999</ele><time>2026-04-10T19:26:58Z</time></trkpt><trkpt lat="51.03887019695236" lon="2.3774554185543386"><ele>6.3999999999999995</ele><time>2026-04-10T19:27:00Z</time></trkpt><trkpt lat="51.03885449316227" lon="2.377301926957283"><ele>6.6</ele><time>2026-04-10T19:27:01Z</time></trkpt><trkpt lat="51.038792543062044" lon="2.3771341095579666"><ele>6.8</ele><time>2026-04-10T19:27:03Z</time></trkpt><trkpt lat="51.03882008236349" lon="2.3769775839000222"><ele>7.0</ele><time>2026-04-10T19:27:04Z</time></trkpt><trkpt lat="51.03880224569902" lon="2.376865107530723"><ele>7.000000000000001</ele><time>2026-04-10T19:27:05Z</time></trkpt><trkpt lat="51.038761773601124" lon="2.376754397972248"><ele>7.0</ele><time>2026-04-10T19:27:06Z</time></trkpt><trkpt lat="51.03873462380117" lon="2.376647969044969"><ele>7.0</ele><time>2026-04-10T19:27:07Z</time></trkpt><trkpt lat="51.038707789701135" lon="2.376540458578901"><ele>7.0</ele><time>2026-04-10T19:27:08Z</time></trkpt><trkpt lat="51.03867722200092" lon="2.376440706534262"><ele>7.000000000000001</ele><time>2026-04-10T19:27:09Z</time></trkpt><trkpt lat="51.038652587344664" lon="2.3763472664374414"><ele>7.0</ele><time>2026-04-10T19:27:10Z</time></trkpt><trkpt lat="51.03860137110327" lon="2.3761815734475236"><ele>6.3999999999999995</ele><time>2026-04-10T19:27:12Z</time></trkpt><trkpt lat="51.038549434896396" lon="2.376035859785265"><ele>5.799999999999999</ele><time>2026-04-10T19:27:14Z</time></trkpt><trkpt lat="51.03850906248731" lon="2.375900413654702"><ele>5.2</ele><time>2026-04-10T19:27:16Z</time></trkpt><trkpt lat="51.03846664444352" lon="2.3757685823755135"><ele>4.6</ele><time>2026-04-10T19:27:18Z</time></trkpt><trkpt lat="51.038434990148474" lon="2.3756458472097193"><ele>4.0</ele><time>2026-04-10T19:27:20Z</time></trkpt><trkpt lat="51.0384121491208" lon="2.375510168929692"><ele>3.75</ele><time>2026-04-10T19:27:22Z</time></trkpt><trkpt lat="51.038368756759525" lon="2.3753815245876875"><ele>3.5</ele><time>2026-04-10T19:27:24Z</time></trkpt><trkpt lat="51.03829910712763" lon="2.3752416942265477"><ele>3.25</ele><time>2026-04-10T19:27:26Z</time></trkpt><trkpt lat="51.03814113733093" lon="2.3752081020097773"><ele>3.0</ele><time>2026-04-10T19:27:28Z</time></trkpt><trkpt lat="51.03807992681672" lon="2.3750912494914633"><ele>3.0</ele><time>2026-04-10T19:27:30Z</time></trkpt><trkpt lat="51.038036763617015" lon="2.3750126171544412"><ele>3.0</ele><time>2026-04-10T19:27:32Z</time></trkpt><trkpt lat="51.03799460303457" lon="2.37493666248585"><ele>3.0</ele><time>2026-04-10T19:27:34Z</time></trkpt><trkpt lat="51.03793170173864" lon="2.374828214446633"><ele>3.0</ele><time>2026-04-10T19:27:36Z</time></trkpt><trkpt lat="51.03787307924446" lon="2.3747324626381094"><ele>3.0</ele><time>2026-04-10T19:27:38Z</time></trkpt><trkpt lat="51.0378071410941" lon="2.374634400331569"><ele>3.0</ele><time>2026-04-10T19:27:40Z</time></trkpt><trkpt lat="51.03774787663543" lon="2.3745470433696956"><ele>3.0</ele><time>2026-04-10T19:27:42Z</time></trkpt><trkpt lat="51.03769182562684" lon="2.3744649138545006"><ele>3.0</ele><time>2026-04-10T19:27:44Z</time></trkpt><trkpt lat="51.037641742852635" lon="2.374391635224245"><ele>3.0</ele><time>2026-04-10T19:27:46Z</time></trkpt><trkpt lat="51.037595171039705" lon="2.3743234936644053"><ele>3.0</ele><time>2026-04-10T19:27:48Z</time></trkpt><trkpt lat="51.03753813141683" lon="2.374241314345966"><ele>3.0</ele><time>2026-04-10T19:27:51Z</time></trkpt><trkpt lat="51.03708770878368" lon="2.373707331461147"><ele>3.25</ele><time>2026-04-10T19:27:53Z</time></trkpt><trkpt lat="51.03702792329021" lon="2.3736528450630483"><ele>3.5</ele><time>2026-04-10T19:27:54Z</time></trkpt><trkpt lat="51.03702449959707" lon="2.3734570606617083"><ele>3.75</ele><time>2026-04-10T19:27:55Z</time></trkpt><trkpt lat="51.03692321429755" lon="2.3733710449258014"><ele>4.0</ele><time>2026-04-10T19:27:57Z</time></trkpt><trkpt lat="51.03678085330946" lon="2.3734399519855933"><ele>4.0</ele><time>2026-04-10T19:27:59Z</time></trkpt><trkpt lat="51.03669044022815" lon="2.3733714859366395"><ele>4.0</ele><time>2026-04-10T19:28:01Z</time></trkpt><trkpt lat="51.03660099409975" lon="2.3733047899087394"><ele>4.0</ele><time>2026-04-10T19:28:03Z</time></trkpt><trkpt lat="51.03653626849682" lon="2.3732570565935887"><ele>4.0</ele><time>2026-04-10T19:28:05Z</time></trkpt><trkpt lat="51.03644265547079" lon="2.3731402044010173"><ele>4.0</ele><time>2026-04-10T19:28:07Z</time></trkpt><trkpt lat="51.036355305091554" lon="2.373067652616051"><ele>5.4</ele><time>2026-04-10T19:28:09Z</time></trkpt><trkpt lat="51.03628024490291" lon="2.3729700496269546"><ele>6.800000000000001</ele><time>2026-04-10T19:28:11Z</time></trkpt><trkpt lat="51.03619792343302" lon="2.3728809110633597"><ele>8.200000000000001</ele><time>2026-04-10T19:28:13Z</time></trkpt><trkpt lat="51.03613193541115" lon="2.3728066178297067"><ele>9.600000000000001</ele><time>2026-04-10T19:28:15Z</time></trkpt><trkpt lat="51.03602696911803" lon="2.372762964871013"><ele>11.0</ele><time>2026-04-10T19:28:17Z</time></trkpt><trkpt lat="51.03594021363046" lon="2.372693171967622"><ele>11.0</ele><time>2026-04-10T19:28:19Z</time></trkpt><trkpt lat="51.03585828792036" lon="2.372619052521022"><ele>11.0</ele><time>2026-04-10T19:28:21Z</time></trkpt><trkpt lat="51.0357702344484" lon="2.372568138211404"><ele>11.0</ele><time>2026-04-10T19:28:23Z</time></trkpt><trkpt lat="51.03569806434125" lon="2.3725340852677568"><ele>11.0</ele><time>2026-04-10T19:28:25Z</time></trkpt><trkpt lat="51.0356360349405" lon="2.372483685277812"><ele>11.0</ele><time>2026-04-10T19:28:27Z</time></trkpt><trkpt lat="51.0355768797355" lon="2.3724257367400607"><ele>11.0</ele><time>2026-04-10T19:28:29Z</time></trkpt><trkpt lat="51.035515331381596" lon="2.3723955089904787"><ele>10.0</ele><time>2026-04-10T19:28:31Z</time></trkpt><trkpt lat="51.03542383583019" lon="2.372370783126551"><ele>9.0</ele><time>2026-04-10T19:28:34Z</time></trkpt><trkpt lat="51.035345054618844" lon="2.372341751842129"><ele>8.0</ele><time>2026-04-10T19:28:37Z</time></trkpt><trkpt lat="51.035262234336" lon="2.372331622461811"><ele>7.0</ele><time>2026-04-10T19:28:40Z</time></trkpt><trkpt lat="51.03519825846454" lon="2.37232607746134"><ele>6.0</ele><time>2026-04-10T19:28:42Z</time></trkpt><trkpt lat="51.035133918819014" lon="2.3723067275773735"><ele>5.0</ele><time>2026-04-10T19:28:44Z</time></trkpt><trkpt lat="51.03507021141466" lon="2.3722687856948057"><ele>5.0</ele><time>2026-04-10T19:28:46Z</time></trkpt><trkpt lat="51.03499906793218" lon="2.3722364169118926"><ele>5.0</ele><time>2026-04-10T19:28:48Z</time></trkpt><trkpt lat="51.03492565516012" lon="2.372219466052798"><ele>5.0</ele><time>2026-04-10T19:28:50Z</time></trkpt><trkpt lat="51.03484654795541" lon="2.3722148392925595"><ele>5.0</ele><time>2026-04-10T19:28:52Z</time></trkpt><trkpt lat="51.03477817382752" lon="2.372168585068902"><ele>5.0</ele><time>2026-04-10T19:28:54Z</time></trkpt><trkpt lat="51.03470222371856" lon="2.3721331016750784"><ele>5.0</ele><time>2026-04-10T19:28:56Z</time></trkpt><trkpt lat="51.034621406593914" lon="2.372122448785873"><ele>5.666666666666667</ele><time>2026-04-10T19:28:58Z</time></trkpt><trkpt lat="51.03454466094979" lon="2.372089225545648"><ele>6.333333333333334</ele><time>2026-04-10T19:29:00Z</time></trkpt><trkpt lat="51.034466815959966" lon="2.3720687080419687"><ele>7.0</ele><time>2026-04-10T19:29:02Z</time></trkpt><trkpt lat="51.03439012150646" lon="2.372035013366363"><ele>7.666666666666667</ele><time>2026-04-10T19:29:04Z</time></trkpt><trkpt lat="51.03430750634135" lon="2.3720048694551923"><ele>8.333333333333334</ele><time>2026-04-10T19:29:06Z</time></trkpt><trkpt lat="51.034225037301646" lon="2.3719898812609057"><ele>9.0</ele><time>2026-04-10T19:29:08Z</time></trkpt><trkpt lat="51.034155808982334" lon="2.3719641626514156"><ele>8.666666666666666</ele><time>2026-04-10T19:29:10Z</time></trkpt><trkpt lat="51.03408420026027" lon="2.3719444287164553"><ele>8.333333333333334</ele><time>2026-04-10T19:29:12Z</time></trkpt><trkpt lat="51.03398569487946" lon="2.371911197083691"><ele>8.0</ele><time>2026-04-10T19:29:15Z</time></trkpt><trkpt lat="51.03390167728649" lon="2.3718780587091786"><ele>7.666666666666667</ele><time>2026-04-10T19:29:17Z</time></trkpt><trkpt lat="51.033822344061434" lon="2.3718631196267643"><ele>7.333333333333334</ele><time>2026-04-10T19:29:19Z</time></trkpt><trkpt lat="51.033731922265744" lon="2.3718341407945625"><ele>7.0</ele><time>2026-04-10T19:29:21Z</time></trkpt><trkpt lat="51.033641411359135" lon="2.3717965054512797"><ele>7.0</ele><time>2026-04-10T19:29:23Z</time></trkpt><trkpt lat="51.033546947625425" lon="2.371771116703728"><ele>6.999999999999999</ele><time>2026-04-10T19:29:25Z</time></trkpt><trkpt lat="51.033448123340115" lon="2.3717378674228473"><ele>6.999999999999999</ele><time>2026-04-10T19:29:27Z</time></trkpt><trkpt lat="51.033352051184245" lon="2.3717010856137035"><ele>7.0</ele><time>2026-04-10T19:29:29Z</time></trkpt><trkpt lat="51.03324668810311" lon="2.3716715428390085"><ele>7.0</ele><time>2026-04-10T19:29:31Z</time></trkpt><trkpt lat="51.03313975196221" lon="2.3716261563813177"><ele>6.8</ele><time>2026-04-10T19:29:33Z</time></trkpt><trkpt lat="51.033022380682524" lon="2.3715927715569176"><ele>6.6</ele><time>2026-04-10T19:29:35Z</time></trkpt><trkpt lat="51.03295435867929" lon="2.371572609116617"><ele>6.3999999999999995</ele><time>2026-04-10T19:29:36Z</time></trkpt><trkpt lat="51.03284769022716" lon="2.3715262385925766"><ele>6.199999999999999</ele><time>2026-04-10T19:29:38.001Z</time></trkpt><trkpt lat="51.03270425026902" lon="2.371482749458206"><ele>6.0</ele><time>2026-04-10T19:29:40.001Z</time></trkpt><trkpt lat="51.03264094726205" lon="2.371481403183942"><ele>6.0</ele><time>2026-04-10T19:29:41.001Z</time></trkpt><trkpt lat="51.03257104046366" lon="2.3717328638960677"><ele>6.0</ele><time>2026-04-10T19:29:42.001Z</time></trkpt><trkpt lat="51.03250379574713" lon="2.371734411738701"><ele>6.0</ele><time>2026-04-10T19:29:43.001Z</time></trkpt><trkpt lat="51.032438492071066" lon="2.3717335057715623"><ele>6.0</ele><time>2026-04-10T19:29:44.001Z</time></trkpt><trkpt lat="51.032373625903105" lon="2.3717394773496934"><ele>6.0</ele><time>2026-04-10T19:29:45.001Z</time></trkpt><trkpt lat="51.032294308200576" lon="2.3717474057677075"><ele>6.166666666666667</ele><time>2026-04-10T19:29:46.001Z</time></trkpt><trkpt lat="51.03222878116487" lon="2.3717552925518404"><ele>6.333333333333334</ele><time>2026-04-10T19:29:47.001Z</time></trkpt><trkpt lat="51.03215963458547" lon="2.3717636150015577"><ele>6.5</ele><time>2026-04-10T19:29:48.001Z</time></trkpt><trkpt lat="51.03206876873627" lon="2.3717605937985344"><ele>6.666666666666667</ele><time>2026-04-10T19:29:49.001Z</time></trkpt><trkpt lat="51.031945449276556" lon="2.3717542015088444"><ele>6.833333333333334</ele><time>2026-04-10T19:29:51.001Z</time></trkpt><trkpt lat="51.03185512780818" lon="2.371784532636005"><ele>7.0</ele><time>2026-04-10T19:29:53.001Z</time></trkpt><trkpt lat="51.031755980819675" lon="2.3718083508037635"><ele>7.000000000000001</ele><time>2026-04-10T19:29:55.001Z</time></trkpt><trkpt lat="51.03168937927335" lon="2.3718243505370173"><ele>7.0</ele><time>2026-04-10T19:29:56.001Z</time></trkpt><trkpt lat="51.03156498184993" lon="2.371830906347193"><ele>7.0</ele><time>2026-04-10T19:29:58Z</time></trkpt><trkpt lat="51.03150475033079" lon="2.3718661959692455"><ele>7.0</ele><time>2026-04-10T19:29:59Z</time></trkpt><trkpt lat="51.0314287889974" lon="2.3718842527322948"><ele>7.000000000000001</ele><time>2026-04-10T19:30:00Z</time></trkpt><trkpt lat="51.031314915047915" lon="2.371914801914916"><ele>7.0</ele><time>2026-04-10T19:30:02Z</time></trkpt><trkpt lat="51.03121747358247" lon="2.371932460650585"><ele>6.8</ele><time>2026-04-10T19:30:04Z</time></trkpt><trkpt lat="51.031113389445196" lon="2.3719976856934144"><ele>6.6</ele><time>2026-04-10T19:30:06Z</time></trkpt><trkpt lat="51.03103009215705" lon="2.3718173053996923"><ele>6.3999999999999995</ele><time>2026-04-10T19:30:08Z</time></trkpt><trkpt lat="51.031008889757395" lon="2.3717086583467726"><ele>6.199999999999999</ele><time>2026-04-10T19:30:10Z</time></trkpt><trkpt lat="51.03097729633383" lon="2.3715467647559776"><ele>6.0</ele><time>2026-04-10T19:30:14Z</time></trkpt><trkpt lat="51.03095853019041" lon="2.3714506017624792"><ele>6.0</ele><time>2026-04-10T19:30:24Z</time></trkpt><trkpt lat="51.030934786982996" lon="2.371338979054266"><ele>6.0</ele><time>2026-04-10T19:30:46Z</time></trkpt><trkpt lat="51.03086124843667" lon="2.371382929328969"><ele>6.0</ele><time>2026-04-10T19:30:48Z</time></trkpt><trkpt lat="51.030795041287874" lon="2.371357801881634"><ele>6.0</ele><time>2026-04-10T19:30:50Z</time></trkpt><trkpt lat="51.030764890952604" lon="2.3711898231416817"><ele>6.0</ele><time>2026-04-10T19:30:52Z</time></trkpt><trkpt lat="51.030750960972696" lon="2.371079758283611"><ele>6.0</ele><time>2026-04-10T19:30:54Z</time></trkpt><trkpt lat="51.0306504895275" lon="2.3711213461247946"><ele>6.0</ele><time>2026-04-10T19:30:56Z</time></trkpt><trkpt lat="51.03057919422891" lon="2.371114632984554"><ele>6.0</ele><time>2026-04-10T19:30:57Z</time></trkpt><trkpt lat="51.030497632514184" lon="2.3710913886619465"><ele>6.0</ele><time>2026-04-10T19:30:58Z</time></trkpt><trkpt lat="51.03043314149157" lon="2.371061088381708"><ele>6.0</ele><time>2026-04-10T19:30:59Z</time></trkpt><trkpt lat="51.030344213757104" lon="2.371098991386251"><ele>6.0</ele><time>2026-04-10T19:31:00Z</time></trkpt><trkpt lat="51.030278865849716" lon="2.3710990245063974"><ele>6.0</ele><time>2026-04-10T19:31:01Z</time></trkpt><trkpt lat="51.0301929687437" lon="2.371128428725626"><ele>6.0</ele><time>2026-04-10T19:31:03Z</time></trkpt><trkpt lat="51.03009123278629" lon="2.371044940044401"><ele>6.0</ele><time>2026-04-10T19:31:05Z</time></trkpt><trkpt lat="51.03003636720231" lon="2.3709902666916376"><ele>6.0</ele><time>2026-04-10T19:31:06Z</time></trkpt><trkpt lat="51.02993587107128" lon="2.370885659257155"><ele>6.0</ele><time>2026-04-10T19:31:08Z</time></trkpt><trkpt lat="51.02987162998383" lon="2.370838417352144"><ele>6.0</ele><time>2026-04-10T19:31:09Z</time></trkpt><trkpt lat="51.02980228380192" lon="2.3709497494138723"><ele>5.6</ele><time>2026-04-10T19:31:10Z</time></trkpt><trkpt lat="51.029748076506124" lon="2.370840101920656"><ele>5.199999999999999</ele><time>2026-04-10T19:31:12Z</time></trkpt><trkpt lat="51.02969982258827" lon="2.3706639350498544"><ele>4.800000000000001</ele><time>2026-04-10T19:31:14Z</time></trkpt><trkpt lat="51.02966217400279" lon="2.370464212200931"><ele>4.4</ele><time>2026-04-10T19:31:16Z</time></trkpt><trkpt lat="51.02964328757234" lon="2.3703617831129518"><ele>4.0</ele><time>2026-04-10T19:31:17Z</time></trkpt><trkpt lat="51.029617617300225" lon="2.370263724847603"><ele>3.8571428571428568</ele><time>2026-04-10T19:31:18Z</time></trkpt><trkpt lat="51.02959511877232" lon="2.3701569135834006"><ele>3.714285714285714</ele><time>2026-04-10T19:31:19Z</time></trkpt><trkpt lat="51.02956981940413" lon="2.37004565773639"><ele>3.571428571428571</ele><time>2026-04-10T19:31:20Z</time></trkpt><trkpt lat="51.029543046503235" lon="2.369931903696414"><ele>3.4285714285714284</ele><time>2026-04-10T19:31:21Z</time></trkpt><trkpt lat="51.02952021563982" lon="2.369818471943623"><ele>3.2857142857142856</ele><time>2026-04-10T19:31:22Z</time></trkpt><trkpt lat="51.02948365303144" lon="2.3697146795463366"><ele>3.1428571428571423</ele><time>2026-04-10T19:31:23Z</time></trkpt><trkpt lat="51.029444769453136" lon="2.369609207838774"><ele>3.0</ele><time>2026-04-10T19:31:24Z</time></trkpt><trkpt lat="51.02947962919366" lon="2.369462295782417"><ele>3.0</ele><time>2026-04-10T19:31:25Z</time></trkpt><trkpt lat="51.0294513827383" lon="2.369362675296923"><ele>3.0</ele><time>2026-04-10T19:31:26Z</time></trkpt><trkpt lat="51.02940283822009" lon="2.3691809174519176"><ele>3.0</ele><time>2026-04-10T19:31:28Z</time></trkpt><trkpt lat="51.02934961123076" lon="2.369042286060523"><ele>3.0</ele><time>2026-04-10T19:31:30Z</time></trkpt><trkpt lat="51.02932783142779" lon="2.3688644063308155"><ele>3.0</ele><time>2026-04-10T19:31:32Z</time></trkpt><trkpt lat="51.02931023198655" lon="2.368756894949975"><ele>3.0</ele><time>2026-04-10T19:31:33Z</time></trkpt><trkpt lat="51.029263518684004" lon="2.368677251283026"><ele>3.0</ele><time>2026-04-10T19:31:34Z</time></trkpt><trkpt lat="51.0292464507373" lon="2.368567545664818"><ele>3.0</ele><time>2026-04-10T19:31:36Z</time></trkpt><trkpt lat="51.02922924579072" lon="2.3684371895548453"><ele>3.0</ele><time>2026-04-10T19:31:38Z</time></trkpt><trkpt lat="51.02920181955461" lon="2.368290806116767"><ele>3.0</ele><time>2026-04-10T19:31:40Z</time></trkpt><trkpt lat="51.029198301650375" lon="2.3681612943105717"><ele>3.0</ele><time>2026-04-10T19:31:42Z</time></trkpt><trkpt lat="51.02918169238551" lon="2.368017902763961"><ele>3.4</ele><time>2026-04-10T19:31:44.001Z</time></trkpt><trkpt lat="51.029154095630666" lon="2.367877712357382"><ele>3.8</ele><time>2026-04-10T19:31:46.001Z</time></trkpt><trkpt lat="51.02913612217019" lon="2.3677365700587134"><ele>4.2</ele><time>2026-04-10T19:31:48.001Z</time></trkpt><trkpt lat="51.029112759293426" lon="2.3675999070674285"><ele>4.6</ele><time>2026-04-10T19:31:50.001Z</time></trkpt><trkpt lat="51.02906903635583" lon="2.3674614169532524"><ele>5.0</ele><time>2026-04-10T19:31:52.001Z</time></trkpt><trkpt lat="51.02904711109621" lon="2.367330348690713"><ele>4.6</ele><time>2026-04-10T19:31:54.001Z</time></trkpt><trkpt lat="51.02900972827922" lon="2.367193061530143"><ele>4.2</ele><time>2026-04-10T19:31:56.001Z</time></trkpt><trkpt lat="51.02898469255863" lon="2.367050825873624"><ele>3.8</ele><time>2026-04-10T19:31:58.001Z</time></trkpt><trkpt lat="51.02896169692922" lon="2.3669168875479816"><ele>3.4</ele><time>2026-04-10T19:32:00.001Z</time></trkpt><trkpt lat="51.028938020368294" lon="2.3667748729567846"><ele>3.0</ele><time>2026-04-10T19:32:02.001Z</time></trkpt><trkpt lat="51.02890844090709" lon="2.3666407328599437"><ele>2.9999999999999996</ele><time>2026-04-10T19:32:04Z</time></trkpt><trkpt lat="51.028889914903154" lon="2.366520253265258"><ele>3.0</ele><time>2026-04-10T19:32:06Z</time></trkpt><trkpt lat="51.02885820094568" lon="2.3664167013254587"><ele>3.0</ele><time>2026-04-10T19:32:08Z</time></trkpt><trkpt lat="51.028839669292104" lon="2.366307671953398"><ele>3.0</ele><time>2026-04-10T19:32:10Z</time></trkpt><trkpt lat="51.028820015903975" lon="2.3662062538644917"><ele>3.0</ele><time>2026-04-10T19:32:12Z</time></trkpt><trkpt lat="51.02879859773307" lon="2.366099968161959"><ele>2.9999999999999996</ele><time>2026-04-10T19:32:14Z</time></trkpt><trkpt lat="51.02880369171917" lon="2.3659677160329156"><ele>3.0</ele><time>2026-04-10T19:32:17Z</time></trkpt><trkpt lat="51.028807131896656" lon="2.365815940466645"><ele>2.6666666666666665</ele><time>2026-04-10T19:32:20Z</time></trkpt><trkpt lat="51.028780836566405" lon="2.36566758066283"><ele>2.3333333333333335</ele><time>2026-04-10T19:32:22Z</time></trkpt><trkpt lat="51.028758965667635" lon="2.365514894176076"><ele>2.0</ele><time>2026-04-10T19:32:24Z</time></trkpt><trkpt lat="51.02877452739454" lon="2.365385483361469"><ele>1.6666666666666665</ele><time>2026-04-10T19:32:26Z</time></trkpt><trkpt lat="51.02879544913471" lon="2.365257124698748"><ele>1.3333333333333333</ele><time>2026-04-10T19:32:28Z</time></trkpt><trkpt lat="51.028829354921164" lon="2.365151791230478"><ele>1.0</ele><time>2026-04-10T19:32:30Z</time></trkpt><trkpt lat="51.02882894386752" lon="2.3650324993587653"><ele>1.0</ele><time>2026-04-10T19:32:32Z</time></trkpt><trkpt lat="51.028820137634064" lon="2.364893024653836"><ele>1.0</ele><time>2026-04-10T19:32:34Z</time></trkpt><trkpt lat="51.02882138358082" lon="2.3647501982767967"><ele>1.0</ele><time>2026-04-10T19:32:36Z</time></trkpt><trkpt lat="51.02880815363118" lon="2.364593425415759"><ele>1.0</ele><time>2026-04-10T19:32:38Z</time></trkpt><trkpt lat="51.028807268621904" lon="2.364435713626874"><ele>1.0</ele><time>2026-04-10T19:32:40Z</time></trkpt><trkpt lat="51.02880682594495" lon="2.3642817764352837"><ele>1.2000000000000002</ele><time>2026-04-10T19:32:42Z</time></trkpt><trkpt lat="51.028799440494346" lon="2.364135610429342"><ele>1.4000000000000001</ele><time>2026-04-10T19:32:44Z</time></trkpt><trkpt lat="51.02879766872645" lon="2.3639887049705983"><ele>1.6</ele><time>2026-04-10T19:32:46Z</time></trkpt><trkpt lat="51.02879422191543" lon="2.3638267473369496"><ele>1.8</ele><time>2026-04-10T19:32:48Z</time></trkpt><trkpt lat="51.02880168532662" lon="2.363666016201206"><ele>2.0</ele><time>2026-04-10T19:32:50Z</time></trkpt><trkpt lat="51.02879323686162" lon="2.3634806598656892"><ele>2.4000000000000004</ele><time>2026-04-10T19:32:52Z</time></trkpt><trkpt lat="51.028763673184095" lon="2.3632758559878293"><ele>2.8000000000000003</ele><time>2026-04-10T19:32:54Z</time></trkpt><trkpt lat="51.02876541243128" lon="2.3631735976634585"><ele>3.2</ele><time>2026-04-10T19:32:55Z</time></trkpt><trkpt lat="51.02876868231736" lon="2.3630656034284523"><ele>3.6</ele><time>2026-04-10T19:32:56Z</time></trkpt><trkpt lat="51.02877090150881" lon="2.3629588737566882"><ele>4.0</ele><time>2026-04-10T19:32:57Z</time></trkpt><trkpt lat="51.028771746325695" lon="2.3627631766105344"><ele>4.0</ele><time>2026-04-10T19:32:59Z</time></trkpt><trkpt lat="51.02877030889009" lon="2.362581139580099"><ele>4.0</ele><time>2026-04-10T19:33:01Z</time></trkpt><trkpt lat="51.028767534171095" lon="2.3624127640266472"><ele>4.0</ele><time>2026-04-10T19:33:03Z</time></trkpt><trkpt lat="51.02876427166954" lon="2.36229604239503"><ele>4.0</ele><time>2026-04-10T19:33:05Z</time></trkpt><trkpt lat="51.028758768223554" lon="2.3621656882387314"><ele>4.0</ele><time>2026-04-10T19:33:08Z</time></trkpt><trkpt lat="51.02874874440852" lon="2.3620259356948994"><ele>4.0</ele><time>2026-04-10T19:33:10Z</time></trkpt><trkpt lat="51.02874582506877" lon="2.3618872821845573"><ele>4.0</ele><time>2026-04-10T19:33:12Z</time></trkpt><trkpt lat="51.02874312652476" lon="2.3617503779022044"><ele>4.0</ele><time>2026-04-10T19:33:14Z</time></trkpt><trkpt lat="51.02873961439334" lon="2.3615721980976114"><ele>4.0</ele><time>2026-04-10T19:33:16Z</time></trkpt><trkpt lat="51.02873754737468" lon="2.361469007455417"><ele>4.0</ele><time>2026-04-10T19:33:17Z</time></trkpt><trkpt lat="51.02873355979845" lon="2.3612921327929346"><ele>4.0</ele><time>2026-04-10T19:33:19Z</time></trkpt><trkpt lat="51.02872944716557" lon="2.3611097110905317"><ele>4.0</ele><time>2026-04-10T19:33:21Z</time></trkpt><trkpt lat="51.02872493928196" lon="2.360927954924328"><ele>4.0</ele><time>2026-04-10T19:33:23Z</time></trkpt><trkpt lat="51.02872048285479" lon="2.3607595690959093"><ele>4.0</ele><time>2026-04-10T19:33:24.999Z</time></trkpt><trkpt lat="51.02871808426596" lon="2.3606538105991266"><ele>4.0</ele><time>2026-04-10T19:33:26.999Z</time></trkpt><trkpt lat="51.02871648107605" lon="2.3605190955743556"><ele>4.0</ele><time>2026-04-10T19:33:27.999Z</time></trkpt><trkpt lat="51.0287142033869" lon="2.3603277026134855"><ele>4.0</ele><time>2026-04-10T19:33:29.999Z</time></trkpt><trkpt lat="51.02870574262129" lon="2.36022452111609"><ele>4.0</ele><time>2026-04-10T19:33:30.999Z</time></trkpt><trkpt lat="51.0286999495897" lon="2.3600381622713815"><ele>4.0</ele><time>2026-04-10T19:33:32.999Z</time></trkpt><trkpt lat="51.0286942557606" lon="2.359854993789727"><ele>4.0</ele><time>2026-04-10T19:33:34.999Z</time></trkpt><trkpt lat="51.02869260481308" lon="2.3596812390185704"><ele>3.833333333333333</ele><time>2026-04-10T19:33:36.999Z</time></trkpt><trkpt lat="51.02869051566598" lon="2.3595798260447474"><ele>3.6666666666666665</ele><time>2026-04-10T19:33:38.999Z</time></trkpt><trkpt lat="51.02868825932707" lon="2.3594156725560036"><ele>3.5</ele><time>2026-04-10T19:33:42.999Z</time></trkpt><trkpt lat="51.02869070758566" lon="2.359301387899156"><ele>3.333333333333333</ele><time>2026-04-10T19:33:44.999Z</time></trkpt><trkpt lat="51.02869820536993" lon="2.359178024129028"><ele>3.1666666666666665</ele><time>2026-04-10T19:33:45.999Z</time></trkpt><trkpt lat="51.02870934986" lon="2.3590630079485404"><ele>3.0</ele><time>2026-04-10T19:33:46.999Z</time></trkpt><trkpt lat="51.028720966457215" lon="2.358956823263022"><ele>3.4</ele><time>2026-04-10T19:33:47.999Z</time></trkpt><trkpt lat="51.028731791153795" lon="2.358857876941242"><ele>3.8</ele><time>2026-04-10T19:33:49.001Z</time></trkpt><trkpt lat="51.02877853996324" lon="2.3587586781545835"><ele>4.2</ele><time>2026-04-10T19:33:50.001Z</time></trkpt><trkpt lat="51.02878756955166" lon="2.3586533946060984"><ele>4.6</ele><time>2026-04-10T19:33:51.001Z</time></trkpt><trkpt lat="51.0288349000307" lon="2.358452236723405"><ele>5.0</ele><time>2026-04-10T19:33:53.001Z</time></trkpt><trkpt lat="51.02887900113516" lon="2.358245080444371"><ele>5.0</ele><time>2026-04-10T19:33:55.001Z</time></trkpt><trkpt lat="51.02890534924022" lon="2.358134103001482"><ele>5.0</ele><time>2026-04-10T19:33:56.001Z</time></trkpt><trkpt lat="51.02895554173698" lon="2.357980517582777"><ele>5.0</ele><time>2026-04-10T19:33:58.001Z</time></trkpt><trkpt lat="51.02898393875461" lon="2.357808774570953"><ele>5.0</ele><time>2026-04-10T19:34:00.001Z</time></trkpt><trkpt lat="51.02902010096016" lon="2.3576494209011822"><ele>5.0</ele><time>2026-04-10T19:34:02.001Z</time></trkpt><trkpt lat="51.0290431542012" lon="2.357501819821565"><ele>5.0</ele><time>2026-04-10T19:34:04.001Z</time></trkpt><trkpt lat="51.029057206816475" lon="2.357363080115437"><ele>5.0</ele><time>2026-04-10T19:34:06Z</time></trkpt><trkpt lat="51.02903211744517" lon="2.357220465660339"><ele>5.0</ele><time>2026-04-10T19:34:08Z</time></trkpt><trkpt lat="51.02899998477322" lon="2.357075822567699"><ele>5.0</ele><time>2026-04-10T19:34:10Z</time></trkpt><trkpt lat="51.028991910396265" lon="2.356932768687045"><ele>5.0</ele><time>2026-04-10T19:34:12Z</time></trkpt><trkpt lat="51.02896699465735" lon="2.3567611033569733"><ele>5.0</ele><time>2026-04-10T19:34:14Z</time></trkpt><trkpt lat="51.02895746164798" lon="2.3565814422118505"><ele>5.0</ele><time>2026-04-10T19:34:16Z</time></trkpt><trkpt lat="51.02894975069531" lon="2.356399017075562"><ele>5.0</ele><time>2026-04-10T19:34:18Z</time></trkpt><trkpt lat="51.02894827593778" lon="2.3562809613037983"><ele>5.0</ele><time>2026-04-10T19:34:19Z</time></trkpt><trkpt lat="51.028944414838946" lon="2.3561787279425928"><ele>5.0</ele><time>2026-04-10T19:34:20Z</time></trkpt><trkpt lat="51.028925946285135" lon="2.356081942304607"><ele>5.0</ele><time>2026-04-10T19:34:21Z</time></trkpt><trkpt lat="51.02891156091162" lon="2.3559729324082004"><ele>5.333333333333334</ele><time>2026-04-10T19:34:22Z</time></trkpt><trkpt lat="51.028891772315816" lon="2.355875216576035"><ele>5.666666666666667</ele><time>2026-04-10T19:34:23Z</time></trkpt><trkpt lat="51.028885765012014" lon="2.355771259265814"><ele>6.0</ele><time>2026-04-10T19:34:24Z</time></trkpt><trkpt lat="51.02887880286009" lon="2.3556663293492544"><ele>6.333333333333334</ele><time>2026-04-10T19:34:25Z</time></trkpt><trkpt lat="51.028860145378424" lon="2.35548998638793"><ele>6.666666666666667</ele><time>2026-04-10T19:34:27Z</time></trkpt><trkpt lat="51.02884060767364" lon="2.355324195778677"><ele>7.0</ele><time>2026-04-10T19:34:29Z</time></trkpt><trkpt lat="51.02883549624057" lon="2.35514829334569"><ele>7.0</ele><time>2026-04-10T19:34:31Z</time></trkpt><trkpt lat="51.028820099874125" lon="2.3550492101526315"><ele>6.999999999999999</ele><time>2026-04-10T19:34:33Z</time></trkpt><trkpt lat="51.02876822362027" lon="2.354896221545651"><ele>6.999999999999999</ele><time>2026-04-10T19:34:35Z</time></trkpt><trkpt lat="51.028776946579" lon="2.3547188113069994"><ele>7.0</ele><time>2026-04-10T19:34:37Z</time></trkpt><trkpt lat="51.02881791960351" lon="2.3545802608038198"><ele>7.0</ele><time>2026-04-10T19:34:39Z</time></trkpt><trkpt lat="51.02883109121526" lon="2.3543962650259647"><ele>6.8</ele><time>2026-04-10T19:34:41Z</time></trkpt><trkpt lat="51.028808282986574" lon="2.3542151369419146"><ele>6.6</ele><time>2026-04-10T19:34:43Z</time></trkpt><trkpt lat="51.02876403871142" lon="2.3540093288049206"><ele>6.3999999999999995</ele><time>2026-04-10T19:34:45Z</time></trkpt><trkpt lat="51.028757178042476" lon="2.353863564518272"><ele>6.199999999999999</ele><time>2026-04-10T19:34:47Z</time></trkpt><trkpt lat="51.028740690854164" lon="2.3537563686192593"><ele>6.0</ele><time>2026-04-10T19:34:48Z</time></trkpt><trkpt lat="51.0287108748817" lon="2.3535831714168243"><ele>5.8</ele><time>2026-04-10T19:34:50Z</time></trkpt><trkpt lat="51.02872262249187" lon="2.3533963677163516"><ele>5.6</ele><time>2026-04-10T19:34:52Z</time></trkpt><trkpt lat="51.0287420414497" lon="2.3532936263758435"><ele>5.4</ele><time>2026-04-10T19:34:53Z</time></trkpt><trkpt lat="51.028725776247185" lon="2.3531077160267735"><ele>5.2</ele><time>2026-04-10T19:34:55Z</time></trkpt><trkpt lat="51.02873365395016" lon="2.3529624793936037"><ele>5.0</ele><time>2026-04-10T19:34:57Z</time></trkpt><trkpt lat="51.028694602683224" lon="2.3528002931098033"><ele>5.0</ele><time>2026-04-10T19:34:59Z</time></trkpt><trkpt lat="51.02867230280313" lon="2.3526926274295206"><ele>5.0</ele><time>2026-04-10T19:35:00Z</time></trkpt><trkpt lat="51.02866422590837" lon="2.352539746462307"><ele>5.0</ele><time>2026-04-10T19:35:02Z</time></trkpt><trkpt lat="51.02867419431057" lon="2.3524235745218407"><ele>5.0</ele><time>2026-04-10T19:35:05Z</time></trkpt><trkpt lat="51.02867569839894" lon="2.3523072784973396"><ele>5.0</ele><time>2026-04-10T19:35:07Z</time></trkpt><trkpt lat="51.02872216215339" lon="2.352185056491536"><ele>5.0</ele><time>2026-04-10T19:35:09Z</time></trkpt><trkpt lat="51.02873460873909" lon="2.352047424685943"><ele>5.0</ele><time>2026-04-10T19:35:11.999Z</time></trkpt><trkpt lat="51.02870984126718" lon="2.3519528981198397"><ele>5.0</ele><time>2026-04-10T19:35:13.999Z</time></trkpt><trkpt lat="51.02867463480489" lon="2.351861494120469"><ele>5.0</ele><time>2026-04-10T19:35:15.999Z</time></trkpt><trkpt lat="51.02864940465518" lon="2.3517660607758035"><ele>5.0</ele><time>2026-04-10T19:35:16.999Z</time></trkpt><trkpt lat="51.02865529259514" lon="2.3516537934362334"><ele>5.0</ele><time>2026-04-10T19:35:19.999Z</time></trkpt><trkpt lat="51.0286455761424" lon="2.351549789115704"><ele>5.0</ele><time>2026-04-10T19:35:21.999Z</time></trkpt><trkpt lat="51.02863352314661" lon="2.3514338081934496"><ele>5.0</ele><time>2026-04-10T19:35:23.999Z</time></trkpt><trkpt lat="51.02864913461282" lon="2.351306395357719"><ele>5.166666666666667</ele><time>2026-04-10T19:35:27.999Z</time></trkpt><trkpt lat="51.02871039585681" lon="2.3512329471884015"><ele>5.333333333333334</ele><time>2026-04-10T19:35:29.999Z</time></trkpt><trkpt lat="51.02875378058532" lon="2.351148588947262"><ele>5.5</ele><time>2026-04-10T19:35:32.999Z</time></trkpt><trkpt lat="51.02873883976615" lon="2.3510445493813874"><ele>5.666666666666667</ele><time>2026-04-10T19:35:35.999Z</time></trkpt><trkpt lat="51.028659811746046" lon="2.3509424562419685"><ele>5.833333333333333</ele><time>2026-04-10T19:36:03Z</time></trkpt><trkpt lat="51.02875295702408" lon="2.3508871311942854"><ele>6.0</ele><time>2026-04-10T19:38:39Z</time></trkpt><trkpt lat="51.0286899399709" lon="2.350796564145342"><ele>6.0</ele><time>2026-04-10T19:39:24.999Z</time></trkpt><trkpt lat="51.0287812287798" lon="2.3508560089943606"><ele>6.0</ele><time>2026-04-10T19:44:37Z</time></trkpt><trkpt lat="51.02871702984443" lon="2.350907506824679"><ele>6.0</ele><time>2026-04-10T19:45:28.999Z</time></trkpt><trkpt lat="51.02877141146391" lon="2.350847980431872"><ele>6.0</ele><time>2026-04-10T19:46:41Z</time></trkpt><trkpt lat="51.0288355104128" lon="2.350846212992762"><ele>6.0</ele><time>2026-04-10T19:47:01Z</time></trkpt><trkpt lat="51.028626284276925" lon="2.3509041019607237"><ele>6.0</ele><time>2026-04-10T19:47:26.643Z</time></trkpt><trkpt lat="51.02875240975417" lon="2.3508214383841195"><ele>6.0</ele><time>2026-04-10T19:48:44.999Z</time></trkpt><trkpt lat="51.02868779486055" lon="2.350893773964048"><ele>6.0</ele><time>2026-04-10T19:50:28.999Z</time></trkpt><trkpt lat="51.02855476246932" lon="2.350899746139616"><ele>6.0</ele><time>2026-04-10T19:50:47.999Z</time></trkpt><trkpt lat="51.028643511941645" lon="2.3509166050262276"><ele>6.0</ele><time>2026-04-10T19:51:24Z</time></trkpt><trkpt lat="51.0286047604187" lon="2.351022149060063"><ele>5.999999999999999</ele><time>2026-04-10T19:51:29Z</time></trkpt><trkpt lat="51.02860353819185" lon="2.3511341817585434"><ele>6.0</ele><time>2026-04-10T19:51:33Z</time></trkpt><trkpt lat="51.02862987078003" lon="2.3512399910218598"><ele>6.0</ele><time>2026-04-10T19:51:56.999Z</time></trkpt><trkpt lat="51.02856623171431" lon="2.3512398092380944"><ele>6.0</ele><time>2026-04-10T19:52:00.999Z</time></trkpt><trkpt lat="51.02856147568023" lon="2.351359193625836"><ele>6.0</ele><time>2026-04-10T19:52:04.999Z</time></trkpt><trkpt lat="51.02854970282537" lon="2.3514629094341"><ele>5.999999999999999</ele><time>2026-04-10T19:52:07.999Z</time></trkpt><trkpt lat="51.02854833044976" lon="2.3516000219683404"><ele>6.0</ele><time>2026-04-10T19:52:10.999Z</time></trkpt><trkpt lat="51.02852689815274" lon="2.3517014885262983"><ele>5.857142857142857</ele><time>2026-04-10T19:52:12.999Z</time></trkpt><trkpt lat="51.02850665032075" lon="2.3517978127652035"><ele>5.714285714285714</ele><time>2026-04-10T19:52:14.999Z</time></trkpt><trkpt lat="51.02849533575495" lon="2.3519218878270585"><ele>5.571428571428571</ele><time>2026-04-10T19:52:19.999Z</time></trkpt><trkpt lat="51.02850542160237" lon="2.352024999496152"><ele>5.428571428571429</ele><time>2026-04-10T19:52:21.999Z</time></trkpt><trkpt lat="51.028528494018296" lon="2.3521297029829293"><ele>5.285714285714286</ele><time>2026-04-10T19:52:23.999Z</time></trkpt><trkpt lat="51.02855425449938" lon="2.3522387743088244"><ele>5.142857142857142</ele><time>2026-04-10T19:52:25.999Z</time></trkpt><trkpt lat="51.02858620067503" lon="2.352348032442361"><ele>5.0</ele><time>2026-04-10T19:52:27.999Z</time></trkpt><trkpt lat="51.028606779307694" lon="2.3524682390182736"><ele>5.0</ele><time>2026-04-10T19:52:29.999Z</time></trkpt><trkpt lat="51.028624004154175" lon="2.3525797409232445"><ele>5.0</ele><time>2026-04-10T19:52:31.999Z</time></trkpt><trkpt lat="51.02863526511046" lon="2.352695651551955"><ele>5.0</ele><time>2026-04-10T19:52:33.999Z</time></trkpt><trkpt lat="51.028653971027914" lon="2.3528129176267245"><ele>5.0</ele><time>2026-04-10T19:52:35.999Z</time></trkpt><trkpt lat="51.02865193302393" lon="2.3529187967369283"><ele>5.0</ele><time>2026-04-10T19:52:37.999Z</time></trkpt><trkpt lat="51.028662190798855" lon="2.353060133971518"><ele>5.0</ele><time>2026-04-10T19:52:40.999Z</time></trkpt><trkpt lat="51.028669072402074" lon="2.3531781209069353"><ele>5.0</ele><time>2026-04-10T19:52:42.999Z</time></trkpt><trkpt lat="51.02869125104107" lon="2.353279805871067"><ele>5.0</ele><time>2026-04-10T19:52:44.999Z</time></trkpt><trkpt lat="51.02870745190126" lon="2.353383394169159"><ele>5.0</ele><time>2026-04-10T19:52:46.999Z</time></trkpt><trkpt lat="51.028710636746965" lon="2.3535075047197838"><ele>5.0</ele><time>2026-04-10T19:52:48.999Z</time></trkpt><trkpt lat="51.028731340579476" lon="2.3536127462750316"><ele>5.0</ele><time>2026-04-10T19:52:50.999Z</time></trkpt><trkpt lat="51.02873731929858" lon="2.353731195537968"><ele>5.0</ele><time>2026-04-10T19:52:52.999Z</time></trkpt><trkpt lat="51.02874764466572" lon="2.353848081371056"><ele>5.0</ele><time>2026-04-10T19:52:54.999Z</time></trkpt><trkpt lat="51.0287617529394" lon="2.3539510091698337"><ele>5.166666666666667</ele><time>2026-04-10T19:52:56.999Z</time></trkpt><trkpt lat="51.02876286445167" lon="2.354083518218427"><ele>5.333333333333334</ele><time>2026-04-10T19:52:58.999Z</time></trkpt><trkpt lat="51.02875795874247" lon="2.354205724999586"><ele>5.5</ele><time>2026-04-10T19:53:00.999Z</time></trkpt><trkpt lat="51.02877086440647" lon="2.354328193316562"><ele>5.666666666666667</ele><time>2026-04-10T19:53:02.999Z</time></trkpt><trkpt lat="51.02877104226305" lon="2.354446861125861"><ele>5.833333333333333</ele><time>2026-04-10T19:53:04.999Z</time></trkpt><trkpt lat="51.02879348630949" lon="2.354577935499468"><ele>6.0</ele><time>2026-04-10T19:53:06.999Z</time></trkpt><trkpt lat="51.0287933427332" lon="2.3547229462597077"><ele>6.166666666666667</ele><time>2026-04-10T19:53:08.999Z</time></trkpt><trkpt lat="51.028785075847125" lon="2.3548685544476404"><ele>6.333333333333334</ele><time>2026-04-10T19:53:10.999Z</time></trkpt><trkpt lat="51.02878851426495" lon="2.354998854356748"><ele>6.5</ele><time>2026-04-10T19:53:12.999Z</time></trkpt><trkpt lat="51.02878812222817" lon="2.3551393726603367"><ele>6.666666666666667</ele><time>2026-04-10T19:53:14.999Z</time></trkpt><trkpt lat="51.028786862502436" lon="2.3552689888607152"><ele>6.833333333333334</ele><time>2026-04-10T19:53:16.999Z</time></trkpt><trkpt lat="51.02878010609487" lon="2.355393509701072"><ele>7.0</ele><time>2026-04-10T19:53:18.999Z</time></trkpt><trkpt lat="51.02878011442239" lon="2.3555145666583654"><ele>7.0</ele><time>2026-04-10T19:53:20.999Z</time></trkpt><trkpt lat="51.02878753171998" lon="2.3556381539206432"><ele>7.0</ele><time>2026-04-10T19:53:22.999Z</time></trkpt><trkpt lat="51.028773330567354" lon="2.3557502697285995"><ele>7.0</ele><time>2026-04-10T19:53:24.999Z</time></trkpt><trkpt lat="51.028780556494006" lon="2.35585658750025"><ele>7.0</ele><time>2026-04-10T19:53:26.999Z</time></trkpt><trkpt lat="51.028793413409176" lon="2.355965706153882"><ele>7.0</ele><time>2026-04-10T19:53:28.999Z</time></trkpt><trkpt lat="51.028816534601305" lon="2.356073561646331"><ele>7.0</ele><time>2026-04-10T19:53:30.999Z</time></trkpt><trkpt lat="51.028821533805434" lon="2.3561749356594524"><ele>7.0</ele><time>2026-04-10T19:53:32.999Z</time></trkpt><trkpt lat="51.02885890807143" lon="2.3563053018541398"><ele>6.666666666666667</ele><time>2026-04-10T19:53:34.999Z</time></trkpt><trkpt lat="51.02887375000503" lon="2.3564275961519408"><ele>6.333333333333334</ele><time>2026-04-10T19:53:36.999Z</time></trkpt><trkpt lat="51.028885189860574" lon="2.3565483750166507"><ele>6.0</ele><time>2026-04-10T19:53:38.999Z</time></trkpt><trkpt lat="51.02890113340985" lon="2.3566546297596225"><ele>5.666666666666667</ele><time>2026-04-10T19:53:40.999Z</time></trkpt><trkpt lat="51.028876171023214" lon="2.356819230940054"><ele>5.333333333333334</ele><time>2026-04-10T19:53:42.999Z</time></trkpt><trkpt lat="51.028881329308376" lon="2.356939847886714"><ele>5.0</ele><time>2026-04-10T19:53:44.999Z</time></trkpt><trkpt lat="51.02889638375859" lon="2.3570630826720445"><ele>5.0</ele><time>2026-04-10T19:53:46.999Z</time></trkpt><trkpt lat="51.02890926448468" lon="2.3571827359393343"><ele>5.0</ele><time>2026-04-10T19:53:48.999Z</time></trkpt><trkpt lat="51.028906675055126" lon="2.3573315697049346"><ele>5.0</ele><time>2026-04-10T19:53:50.999Z</time></trkpt><trkpt lat="51.028926070801774" lon="2.3574968940310597"><ele>5.0</ele><time>2026-04-10T19:53:52.999Z</time></trkpt><trkpt lat="51.02893217082887" lon="2.357653157966873"><ele>5.0</ele><time>2026-04-10T19:53:54.999Z</time></trkpt><trkpt lat="51.028896488730446" lon="2.3577591554875017"><ele>5.0</ele><time>2026-04-10T19:53:56.999Z</time></trkpt><trkpt lat="51.02888837133076" lon="2.357877666790394"><ele>5.0</ele><time>2026-04-10T19:53:59.999Z</time></trkpt><trkpt lat="51.028866400223166" lon="2.358022223227097"><ele>5.0</ele><time>2026-04-10T19:54:02.999Z</time></trkpt><trkpt lat="51.028770709881236" lon="2.358289809699468"><ele>5.0</ele><time>2026-04-10T19:54:03.999Z</time></trkpt><trkpt lat="51.02874766280753" lon="2.3584326432402127"><ele>5.0</ele><time>2026-04-10T19:54:05.999Z</time></trkpt><trkpt lat="51.028715963796905" lon="2.3585672618354763"><ele>5.0</ele><time>2026-04-10T19:54:07.999Z</time></trkpt><trkpt lat="51.028681137006515" lon="2.358701965031998"><ele>5.0</ele><time>2026-04-10T19:54:09.999Z</time></trkpt><trkpt lat="51.0286529262151" lon="2.3587917261892084"><ele>5.0</ele><time>2026-04-10T19:54:11.999Z</time></trkpt><trkpt lat="51.02863110992115" lon="2.358931562868048"><ele>5.0</ele><time>2026-04-10T19:54:13.999Z</time></trkpt><trkpt lat="51.02860259696213" lon="2.359066072470182"><ele>5.0</ele><time>2026-04-10T19:54:15.999Z</time></trkpt><trkpt lat="51.028583753828585" lon="2.359219249546476"><ele>4.8</ele><time>2026-04-10T19:54:17.999Z</time></trkpt><trkpt lat="51.02859636661593" lon="2.3593744490540844"><ele>4.6</ele><time>2026-04-10T19:54:19.999Z</time></trkpt><trkpt lat="51.028597265437114" lon="2.3595178002483923"><ele>4.4</ele><time>2026-04-10T19:54:21.999Z</time></trkpt><trkpt lat="51.02858946665943" lon="2.359689032852563"><ele>4.2</ele><time>2026-04-10T19:54:23.999Z</time></trkpt><trkpt lat="51.02862959866324" lon="2.3598767043262945"><ele>4.0</ele><time>2026-04-10T19:54:25.999Z</time></trkpt><trkpt lat="51.02862229855689" lon="2.360054645283783"><ele>3.9999999999999996</ele><time>2026-04-10T19:54:27.999Z</time></trkpt><trkpt lat="51.02863251010882" lon="2.360154575034395"><ele>4.0</ele><time>2026-04-10T19:54:28.999Z</time></trkpt><trkpt lat="51.02864316368969" lon="2.3603310004423865"><ele>4.0</ele><time>2026-04-10T19:54:30.999Z</time></trkpt><trkpt lat="51.02864289346489" lon="2.360471145383418"><ele>4.0</ele><time>2026-04-10T19:54:33.999Z</time></trkpt><trkpt lat="51.028641421948585" lon="2.360576355468769"><ele>3.9999999999999996</ele><time>2026-04-10T19:54:35.999Z</time></trkpt><trkpt lat="51.028646776975854" lon="2.36069718185525"><ele>4.0</ele><time>2026-04-10T19:54:36.999Z</time></trkpt><trkpt lat="51.02864961826486" lon="2.3608379170325295"><ele>3.9999999999999996</ele><time>2026-04-10T19:54:37.999Z</time></trkpt><trkpt lat="51.028652314183354" lon="2.3609674419651974"><ele>4.0</ele><time>2026-04-10T19:54:38.999Z</time></trkpt><trkpt lat="51.02865483265105" lon="2.3610809248596905"><ele>4.0</ele><time>2026-04-10T19:54:39.999Z</time></trkpt><trkpt lat="51.02865080013642" lon="2.3611961093834783"><ele>4.0</ele><time>2026-04-10T19:54:40.999Z</time></trkpt><trkpt lat="51.02866172977165" lon="2.3613024713089144"><ele>3.9999999999999996</ele><time>2026-04-10T19:54:41.999Z</time></trkpt><trkpt lat="51.02866475819238" lon="2.3614930666404903"><ele>4.0</ele><time>2026-04-10T19:54:43.999Z</time></trkpt><trkpt lat="51.028667025323124" lon="2.3616068720368073"><ele>3.9999999999999996</ele><time>2026-04-10T19:54:44.999Z</time></trkpt><trkpt lat="51.02865319400482" lon="2.3617053747941474"><ele>4.0</ele><time>2026-04-10T19:54:45.999Z</time></trkpt><trkpt lat="51.02867097947775" lon="2.3618053627844176"><ele>4.0</ele><time>2026-04-10T19:54:46.999Z</time></trkpt><trkpt lat="51.02866502645527" lon="2.3619794890227173"><ele>4.0</ele><time>2026-04-10T19:54:48.999Z</time></trkpt><trkpt lat="51.02869760497793" lon="2.3621479189833234"><ele>3.9999999999999996</ele><time>2026-04-10T19:54:50.999Z</time></trkpt><trkpt lat="51.028676998190804" lon="2.362303718373769"><ele>4.0</ele><time>2026-04-10T19:54:52.999Z</time></trkpt><trkpt lat="51.02867767354804" lon="2.3624696805852206"><ele>4.0</ele><time>2026-04-10T19:54:54.999Z</time></trkpt><trkpt lat="51.02867826230716" lon="2.3626242752420192"><ele>4.0</ele><time>2026-04-10T19:54:56.999Z</time></trkpt><trkpt lat="51.02867885994353" lon="2.3627812008040285"><ele>4.0</ele><time>2026-04-10T19:54:58.999Z</time></trkpt><trkpt lat="51.02867946001164" lon="2.3629387646139333"><ele>4.0</ele><time>2026-04-10T19:55:00.999Z</time></trkpt><trkpt lat="51.02868042704493" lon="2.3630928523324877"><ele>4.0</ele><time>2026-04-10T19:55:02.999Z</time></trkpt><trkpt lat="51.02868225579086" lon="2.363266667528555"><ele>4.0</ele><time>2026-04-10T19:55:04.999Z</time></trkpt><trkpt lat="51.028686631710954" lon="2.363380068746958"><ele>3.9999999999999996</ele><time>2026-04-10T19:55:06.999Z</time></trkpt><trkpt lat="51.028692038324515" lon="2.363512436246249"><ele>4.0</ele><time>2026-04-10T19:55:07.999Z</time></trkpt><trkpt lat="51.02869738720044" lon="2.363643390170755"><ele>4.0</ele><time>2026-04-10T19:55:11Z</time></trkpt><trkpt lat="51.028701832513185" lon="2.363744855319285"><ele>3.9999999999999996</ele><time>2026-04-10T19:55:13Z</time></trkpt><trkpt lat="51.028702616333085" lon="2.363845858337139"><ele>4.0</ele><time>2026-04-10T19:55:15Z</time></trkpt><trkpt lat="51.02870452540808" lon="2.363954805004708"><ele>4.0</ele><time>2026-04-10T19:55:17Z</time></trkpt><trkpt lat="51.02870658857223" lon="2.3640725456084235"><ele>3.5</ele><time>2026-04-10T19:55:19Z</time></trkpt><trkpt lat="51.028708233897945" lon="2.3641849677620748"><ele>3.0</ele><time>2026-04-10T19:55:21Z</time></trkpt><trkpt lat="51.02871471154999" lon="2.364618413459821"><ele>2.5</ele><time>2026-04-10T19:55:23Z</time></trkpt><trkpt lat="51.02866565594358" lon="2.3647648210034315"><ele>2.0</ele><time>2026-04-10T19:55:25Z</time></trkpt><trkpt lat="51.02868662685425" lon="2.3649162372630865"><ele>1.8333333333333333</ele><time>2026-04-10T19:55:27Z</time></trkpt><trkpt lat="51.02866825974783" lon="2.3650598123878086"><ele>1.6666666666666665</ele><time>2026-04-10T19:55:29Z</time></trkpt><trkpt lat="51.028598854723825" lon="2.3651233339798634"><ele>1.5</ele><time>2026-04-10T19:55:32Z</time></trkpt><trkpt lat="51.028622620017565" lon="2.36527137985944"><ele>1.3333333333333333</ele><time>2026-04-10T19:55:35Z</time></trkpt><trkpt lat="51.028660822819035" lon="2.3654114700120625"><ele>1.1666666666666665</ele><time>2026-04-10T19:55:38Z</time></trkpt><trkpt lat="51.028682971882986" lon="2.365536471489964"><ele>1.0</ele><time>2026-04-10T19:55:40Z</time></trkpt><trkpt lat="51.02869573095449" lon="2.365663308848365"><ele>0.9999999999999999</ele><time>2026-04-10T19:55:42Z</time></trkpt><trkpt lat="51.02871837452091" lon="2.3657718094050435"><ele>1.0</ele><time>2026-04-10T19:55:44Z</time></trkpt><trkpt lat="51.02874286170654" lon="2.365914736534088"><ele>1.0</ele><time>2026-04-10T19:55:46Z</time></trkpt><trkpt lat="51.02875674564297" lon="2.366023303616555"><ele>1.0</ele><time>2026-04-10T19:55:48Z</time></trkpt><trkpt lat="51.0287805291528" lon="2.3661446561226245"><ele>0.9999999999999999</ele><time>2026-04-10T19:55:50Z</time></trkpt><trkpt lat="51.02880051650619" lon="2.3663317265583945"><ele>1.0</ele><time>2026-04-10T19:55:53Z</time></trkpt><trkpt lat="51.028819730625386" lon="2.366476206864385"><ele>1.3333333333333333</ele><time>2026-04-10T19:55:55Z</time></trkpt><trkpt lat="51.0288416215673" lon="2.366586789424378"><ele>1.6666666666666665</ele><time>2026-04-10T19:55:56Z</time></trkpt><trkpt lat="51.028861360640555" lon="2.366693983994965"><ele>2.0</ele><time>2026-04-10T19:55:57Z</time></trkpt><trkpt lat="51.02892221952222" lon="2.3667853035344018"><ele>2.3333333333333335</ele><time>2026-04-10T19:55:58Z</time></trkpt><trkpt lat="51.02894072504384" lon="2.3668860975713213"><ele>2.6666666666666665</ele><time>2026-04-10T19:55:59Z</time></trkpt><trkpt lat="51.02896497664301" lon="2.3670203655789965"><ele>3.0</ele><time>2026-04-10T19:56:02Z</time></trkpt><trkpt lat="51.029046296033684" lon="2.3675043797289876"><ele>3.0</ele><time>2026-04-10T19:56:05Z</time></trkpt><trkpt lat="51.02906226265115" lon="2.3676012249252034"><ele>3.0</ele><time>2026-04-10T19:56:06Z</time></trkpt><trkpt lat="51.02908144119892" lon="2.36771755220161"><ele>3.0</ele><time>2026-04-10T19:56:07Z</time></trkpt><trkpt lat="51.029089248948324" lon="2.367852625186578"><ele>3.0</ele><time>2026-04-10T19:56:08Z</time></trkpt><trkpt lat="51.029103343165374" lon="2.3679747891693896"><ele>3.0</ele><time>2026-04-10T19:56:09Z</time></trkpt><trkpt lat="51.02913943708063" lon="2.368098322909856"><ele>3.0</ele><time>2026-04-10T19:56:10Z</time></trkpt><trkpt lat="51.02915932601224" lon="2.368217864023354"><ele>3.0</ele><time>2026-04-10T19:56:11Z</time></trkpt><trkpt lat="51.02918429831509" lon="2.3683404913419612"><ele>3.0</ele><time>2026-04-10T19:56:12Z</time></trkpt><trkpt lat="51.02919290231597" lon="2.3684532547275836"><ele>3.0</ele><time>2026-04-10T19:56:13Z</time></trkpt><trkpt lat="51.02921942938952" lon="2.3685469086415107"><ele>3.0</ele><time>2026-04-10T19:56:14Z</time></trkpt><trkpt lat="51.0292196118484" lon="2.3686567659386233"><ele>3.0</ele><time>2026-04-10T19:56:15Z</time></trkpt><trkpt lat="51.02924934987553" lon="2.3688337125216306"><ele>3.0</ele><time>2026-04-10T19:56:17Z</time></trkpt><trkpt lat="51.0293083815035" lon="2.369019466057884"><ele>3.0</ele><time>2026-04-10T19:56:19Z</time></trkpt><trkpt lat="51.02933702437962" lon="2.3691529191232727"><ele>3.0</ele><time>2026-04-10T19:56:21Z</time></trkpt><trkpt lat="51.02937744381392" lon="2.3693559316357486"><ele>3.0</ele><time>2026-04-10T19:56:23Z</time></trkpt><trkpt lat="51.02942297789089" lon="2.369477815188535"><ele>3.0</ele><time>2026-04-10T19:56:24Z</time></trkpt><trkpt lat="51.0294444346426" lon="2.3695796840666756"><ele>3.0</ele><time>2026-04-10T19:56:25Z</time></trkpt><trkpt lat="51.02950738424549" lon="2.369735481255347"><ele>3.0</ele><time>2026-04-10T19:56:27Z</time></trkpt><trkpt lat="51.029550622927076" lon="2.369863768559931"><ele>3.0</ele><time>2026-04-10T19:56:28.999Z</time></trkpt><trkpt lat="51.029593885066845" lon="2.369977466493148"><ele>3.0</ele><time>2026-04-10T19:56:30.999Z</time></trkpt><trkpt lat="51.02963822914261" lon="2.3700914696650552"><ele>3.0</ele><time>2026-04-10T19:56:32.999Z</time></trkpt><trkpt lat="51.0296820443586" lon="2.370200188919828"><ele>3.0</ele><time>2026-04-10T19:56:34.999Z</time></trkpt><trkpt lat="51.02972954626951" lon="2.37031867141168"><ele>3.0</ele><time>2026-04-10T19:56:36.999Z</time></trkpt><trkpt lat="51.02976857848447" lon="2.3704212408488554"><ele>3.0</ele><time>2026-04-10T19:56:38.999Z</time></trkpt><trkpt lat="51.02980667175603" lon="2.3705213429814247"><ele>3.0</ele><time>2026-04-10T19:56:40.999Z</time></trkpt><trkpt lat="51.02969374173891" lon="2.3707801740877685"><ele>3.0</ele><time>2026-04-10T19:56:42.999Z</time></trkpt><trkpt lat="51.02972676825362" lon="2.370910981870338"><ele>3.0</ele><time>2026-04-10T19:56:44.999Z</time></trkpt><trkpt lat="51.02976880557854" lon="2.3710253379858943"><ele>3.0</ele><time>2026-04-10T19:56:46.999Z</time></trkpt><trkpt lat="51.029816983014435" lon="2.371108165507695"><ele>3.2</ele><time>2026-04-10T19:56:49.999Z</time></trkpt><trkpt lat="51.029895797613385" lon="2.3711347052047302"><ele>3.4</ele><time>2026-04-10T19:56:52.999Z</time></trkpt><trkpt lat="51.0299650448336" lon="2.3711018932941332"><ele>3.6000000000000005</ele><time>2026-04-10T19:56:57.999Z</time></trkpt><trkpt lat="51.030066503640384" lon="2.371236274248345"><ele>3.8000000000000003</ele><time>2026-04-10T19:57:00.999Z</time></trkpt><trkpt lat="51.0301580205814" lon="2.3712348586091463"><ele>4.0</ele><time>2026-04-10T19:57:03.999Z</time></trkpt><trkpt lat="51.03024506870639" lon="2.3712582933754227"><ele>4.333333333333333</ele><time>2026-04-10T19:57:07Z</time></trkpt><trkpt lat="51.03031613265995" lon="2.3712351315724667"><ele>4.666666666666666</ele><time>2026-04-10T19:57:10Z</time></trkpt><trkpt lat="51.03039494763077" lon="2.3712271764021544"><ele>5.0</ele><time>2026-04-10T19:57:14Z</time></trkpt><trkpt lat="51.03048361571195" lon="2.371203938654476"><ele>5.333333333333333</ele><time>2026-04-10T19:57:17Z</time></trkpt><trkpt lat="51.030593497216444" lon="2.3711311771705565"><ele>5.666666666666667</ele><time>2026-04-10T19:57:19Z</time></trkpt><trkpt lat="51.03066419132484" lon="2.371151719336966"><ele>6.0</ele><time>2026-04-10T19:57:22Z</time></trkpt><trkpt lat="51.03068408447776" lon="2.3712736040403266"><ele>6.0</ele><time>2026-04-10T19:57:25Z</time></trkpt><trkpt lat="51.03076857336295" lon="2.3713602479463867"><ele>6.0</ele><time>2026-04-10T19:57:27Z</time></trkpt><trkpt lat="51.03080329669344" lon="2.37144605093604"><ele>6.0</ele><time>2026-04-10T19:57:29Z</time></trkpt><trkpt lat="51.03090052503723" lon="2.3714715412719913"><ele>6.0</ele><time>2026-04-10T19:57:56Z</time></trkpt><trkpt lat="51.03096952373292" lon="2.3713907534947936"><ele>6.0</ele><time>2026-04-10T19:57:59Z</time></trkpt><trkpt lat="51.03103796245385" lon="2.3714136023449566"><ele>6.0</ele><time>2026-04-10T19:58:02Z</time></trkpt><trkpt lat="51.031054457789246" lon="2.3715559069330276"><ele>6.0</ele><time>2026-04-10T19:58:05Z</time></trkpt><trkpt lat="51.031087003128505" lon="2.3717073841159158"><ele>6.0</ele><time>2026-04-10T19:58:08Z</time></trkpt><trkpt lat="51.03112903680288" lon="2.3718404910694115"><ele>6.0</ele><time>2026-04-10T19:58:11Z</time></trkpt><trkpt lat="51.03118172256999" lon="2.3719183981796963"><ele>6.0</ele><time>2026-04-10T19:58:14Z</time></trkpt><trkpt lat="51.03127086412842" lon="2.371867627131265"><ele>6.0</ele><time>2026-04-10T19:58:17Z</time></trkpt><trkpt lat="51.03134465745941" lon="2.3718449682640084"><ele>6.0</ele><time>2026-04-10T19:58:19Z</time></trkpt><trkpt lat="51.03144774302133" lon="2.371828732024309"><ele>6.0</ele><time>2026-04-10T19:58:21Z</time></trkpt><trkpt lat="51.031585968589006" lon="2.3720257905517124"><ele>6.0</ele><time>2026-04-10T19:58:23Z</time></trkpt><trkpt lat="51.03169524359815" lon="2.3719957760058175"><ele>6.0</ele><time>2026-04-10T19:58:25Z</time></trkpt><trkpt lat="51.03180062492335" lon="2.3719668309317865"><ele>6.0</ele><time>2026-04-10T19:58:27Z</time></trkpt><trkpt lat="51.03190070258651" lon="2.3719392141649793"><ele>6.166666666666667</ele><time>2026-04-10T19:58:29Z</time></trkpt><trkpt lat="51.03199426455701" lon="2.371913270378116"><ele>6.333333333333334</ele><time>2026-04-10T19:58:32Z</time></trkpt><trkpt lat="51.03207180843971" lon="2.3718917681274196"><ele>6.5</ele><time>2026-04-10T19:58:34Z</time></trkpt><trkpt lat="51.032161458973704" lon="2.3718857338993873"><ele>6.666666666666667</ele><time>2026-04-10T19:58:37Z</time></trkpt><trkpt lat="51.03222450227548" lon="2.371888276981759"><ele>6.833333333333334</ele><time>2026-04-10T19:58:39Z</time></trkpt><trkpt lat="51.03230647472588" lon="2.371891583640385"><ele>7.0</ele><time>2026-04-10T19:58:42Z</time></trkpt><trkpt lat="51.03237727577113" lon="2.371894925384055"><ele>7.0</ele><time>2026-04-10T19:58:46Z</time></trkpt><trkpt lat="51.032459290070754" lon="2.3719001959517563"><ele>7.0</ele><time>2026-04-10T19:58:49Z</time></trkpt><trkpt lat="51.03254658324015" lon="2.3715467441079934"><ele>7.0</ele><time>2026-04-10T19:58:51Z</time></trkpt><trkpt lat="51.03263405353112" lon="2.371538138543623"><ele>7.0</ele><time>2026-04-10T19:58:53Z</time></trkpt><trkpt lat="51.032710125146494" lon="2.371493905970415"><ele>6.8</ele><time>2026-04-10T19:58:55Z</time></trkpt><trkpt lat="51.03279436640211" lon="2.371514401783347"><ele>6.6</ele><time>2026-04-10T19:58:57Z</time></trkpt><trkpt lat="51.0328817862043" lon="2.3715818009346967"><ele>6.3999999999999995</ele><time>2026-04-10T19:58:59Z</time></trkpt><trkpt lat="51.03296763240822" lon="2.371612821712416"><ele>6.199999999999999</ele><time>2026-04-10T19:59:01Z</time></trkpt><trkpt lat="51.033059724539285" lon="2.371641328714003"><ele>6.0</ele><time>2026-04-10T19:59:03Z</time></trkpt><trkpt lat="51.03314604664336" lon="2.371648594198206"><ele>6.0</ele><time>2026-04-10T19:59:05Z</time></trkpt><trkpt lat="51.0332351319194" lon="2.3716643735843466"><ele>6.0</ele><time>2026-04-10T19:59:07Z</time></trkpt><trkpt lat="51.03332564084011" lon="2.3716810263282504"><ele>6.0</ele><time>2026-04-10T19:59:09Z</time></trkpt><trkpt lat="51.0333981581122" lon="2.3717445801553243"><ele>6.0</ele><time>2026-04-10T19:59:11Z</time></trkpt><trkpt lat="51.03349112551334" lon="2.371751413366256"><ele>6.0</ele><time>2026-04-10T19:59:13.001Z</time></trkpt><trkpt lat="51.03357243387632" lon="2.3717972881745215"><ele>6.0</ele><time>2026-04-10T19:59:15.001Z</time></trkpt><trkpt lat="51.03365424988757" lon="2.371819461322735"><ele>6.199999999999999</ele><time>2026-04-10T19:59:17.001Z</time></trkpt><trkpt lat="51.03375683476119" lon="2.371837923374502"><ele>6.3999999999999995</ele><time>2026-04-10T19:59:19.001Z</time></trkpt><trkpt lat="51.03385190934495" lon="2.3718869377909955"><ele>6.6</ele><time>2026-04-10T19:59:21.001Z</time></trkpt><trkpt lat="51.0339184689742" lon="2.3718813726719974"><ele>6.8</ele><time>2026-04-10T19:59:24.001Z</time></trkpt><trkpt lat="51.0340000880253" lon="2.3719494519128035"><ele>7.0</ele><time>2026-04-10T19:59:26.001Z</time></trkpt><trkpt lat="51.03412969453188" lon="2.3719951819103366"><ele>7.5</ele><time>2026-04-10T19:59:30Z</time></trkpt><trkpt lat="51.034208509429476" lon="2.3720259677151034"><ele>8.0</ele><time>2026-04-10T19:59:32Z</time></trkpt><trkpt lat="51.0342894023465" lon="2.3720502784349544"><ele>8.5</ele><time>2026-04-10T19:59:35Z</time></trkpt><trkpt lat="51.03455926897844" lon="2.3720760302361286"><ele>9.0</ele><time>2026-04-10T19:59:36Z</time></trkpt><trkpt lat="51.03464298543018" lon="2.3721240542755027"><ele>9.0</ele><time>2026-04-10T19:59:38Z</time></trkpt><trkpt lat="51.03472967453302" lon="2.372170153248465"><ele>9.0</ele><time>2026-04-10T19:59:40Z</time></trkpt><trkpt lat="51.034815859537495" lon="2.3721931708942163"><ele>9.0</ele><time>2026-04-10T19:59:42Z</time></trkpt><trkpt lat="51.03489573133574" lon="2.372203679436373"><ele>9.0</ele><time>2026-04-10T19:59:44Z</time></trkpt><trkpt lat="51.03496756207383" lon="2.3722398724574956"><ele>9.0</ele><time>2026-04-10T19:59:46Z</time></trkpt><trkpt lat="51.03505829365249" lon="2.3722785644830755"><ele>9.0</ele><time>2026-04-10T19:59:48Z</time></trkpt><trkpt lat="51.03514893451027" lon="2.3722986121008867"><ele>8.333333333333334</ele><time>2026-04-10T19:59:50Z</time></trkpt><trkpt lat="51.035229770787616" lon="2.37233868765052"><ele>7.666666666666667</ele><time>2026-04-10T19:59:52Z</time></trkpt><trkpt lat="51.03529783288128" lon="2.3723462441979755"><ele>7.0</ele><time>2026-04-10T19:59:54Z</time></trkpt><trkpt lat="51.035385347991856" lon="2.3723771144234345"><ele>6.333333333333334</ele><time>2026-04-10T19:59:56Z</time></trkpt><trkpt lat="51.035464497055095" lon="2.37239149216888"><ele>5.666666666666667</ele><time>2026-04-10T19:59:58Z</time></trkpt><trkpt lat="51.03556234724532" lon="2.3724225459261628"><ele>5.0</ele><time>2026-04-10T20:00:01Z</time></trkpt><trkpt lat="51.03563104858558" lon="2.372461482049174"><ele>5.0</ele><time>2026-04-10T20:00:03Z</time></trkpt><trkpt lat="51.03570052285363" lon="2.37251529989164"><ele>5.0</ele><time>2026-04-10T20:00:05Z</time></trkpt><trkpt lat="51.03576589356352" lon="2.372548983647788"><ele>5.0</ele><time>2026-04-10T20:00:07Z</time></trkpt><trkpt lat="51.03582922757822" lon="2.372596316649703"><ele>5.0</ele><time>2026-04-10T20:00:09Z</time></trkpt><trkpt lat="51.03590830176319" lon="2.3726338780693856"><ele>5.0</ele><time>2026-04-10T20:00:11Z</time></trkpt><trkpt lat="51.03598058512575" lon="2.372709102786825"><ele>5.0</ele><time>2026-04-10T20:00:13Z</time></trkpt><trkpt lat="51.03604793470785" lon="2.372753687561122"><ele>5.6</ele><time>2026-04-10T20:00:15Z</time></trkpt><trkpt lat="51.03613027140236" lon="2.3728055792737703"><ele>6.2</ele><time>2026-04-10T20:00:17Z</time></trkpt><trkpt lat="51.03621786766686" lon="2.372853761238075"><ele>6.800000000000001</ele><time>2026-04-10T20:00:19Z</time></trkpt><trkpt lat="51.036315324628674" lon="2.3729129827806474"><ele>7.4</ele><time>2026-04-10T20:00:21Z</time></trkpt><trkpt lat="51.03639725795656" lon="2.3729698216832786"><ele>8.0</ele><time>2026-04-10T20:00:23Z</time></trkpt><trkpt lat="51.03646730674575" lon="2.373035813635714"><ele>7.999999999999999</ele><time>2026-04-10T20:00:25Z</time></trkpt><trkpt lat="51.03654220792392" lon="2.3730786011024283"><ele>8.0</ele><time>2026-04-10T20:00:27Z</time></trkpt><trkpt lat="51.03660737695703" lon="2.3731356279770814"><ele>8.0</ele><time>2026-04-10T20:00:29Z</time></trkpt><trkpt lat="51.03668852639427" lon="2.373204248503629"><ele>8.0</ele><time>2026-04-10T20:00:31Z</time></trkpt><trkpt lat="51.03677808175147" lon="2.3732689222240997"><ele>7.999999999999999</ele><time>2026-04-10T20:00:33Z</time></trkpt><trkpt lat="51.03687041346859" lon="2.3733417154607572"><ele>8.0</ele><time>2026-04-10T20:00:35Z</time></trkpt><trkpt lat="51.03695290466975" lon="2.373406461465814"><ele>8.166666666666666</ele><time>2026-04-10T20:00:37Z</time></trkpt><trkpt lat="51.037029283054856" lon="2.373468513890246"><ele>8.333333333333332</ele><time>2026-04-10T20:00:39Z</time></trkpt><trkpt lat="51.03710725777882" lon="2.3735316873105217"><ele>8.5</ele><time>2026-04-10T20:00:41Z</time></trkpt><trkpt lat="51.03718781433717" lon="2.373610321268572"><ele>8.666666666666666</ele><time>2026-04-10T20:00:43Z</time></trkpt><trkpt lat="51.03725773780923" lon="2.3736977558269756"><ele>8.833333333333334</ele><time>2026-04-10T20:00:45Z</time></trkpt><trkpt lat="51.03733672543314" lon="2.3737725654193014"><ele>9.0</ele><time>2026-04-10T20:00:47Z</time></trkpt><trkpt lat="51.037409864709616" lon="2.373857798762394"><ele>7.8</ele><time>2026-04-10T20:00:49Z</time></trkpt><trkpt lat="51.037489598385356" lon="2.373959827146249"><ele>6.6000000000000005</ele><time>2026-04-10T20:00:51Z</time></trkpt><trkpt lat="51.037567743261405" lon="2.3740838595295832"><ele>5.4</ele><time>2026-04-10T20:00:53Z</time></trkpt><trkpt lat="51.037633233081124" lon="2.3741757202260017"><ele>4.2</ele><time>2026-04-10T20:00:55Z</time></trkpt><trkpt lat="51.03770238276985" lon="2.3742683164534584"><ele>3.0</ele><time>2026-04-10T20:00:57Z</time></trkpt><trkpt lat="51.03776546926617" lon="2.3743500445682186"><ele>3.0</ele><time>2026-04-10T20:01:00Z</time></trkpt><trkpt lat="51.03784265737711" lon="2.3744864520204394"><ele>3.0</ele><time>2026-04-10T20:01:03Z</time></trkpt><trkpt lat="51.03789258822703" lon="2.3745684572403136"><ele>3.0</ele><time>2026-04-10T20:01:05Z</time></trkpt><trkpt lat="51.03796255627268" lon="2.374662042808593"><ele>3.0</ele><time>2026-04-10T20:01:08Z</time></trkpt><trkpt lat="51.03801675204283" lon="2.374745263648203"><ele>3.0</ele><time>2026-04-10T20:01:10Z</time></trkpt><trkpt lat="51.03806092476879" lon="2.3748372311973474"><ele>3.0</ele><time>2026-04-10T20:01:12Z</time></trkpt><trkpt lat="51.038115475489775" lon="2.3749433391712884"><ele>3.0</ele><time>2026-04-10T20:01:14Z</time></trkpt><trkpt lat="51.03817433798225" lon="2.3750630200879406"><ele>3.0</ele><time>2026-04-10T20:01:16Z</time></trkpt><trkpt lat="51.03823853358119" lon="2.375192468859595"><ele>3.0</ele><time>2026-04-10T20:01:17.999Z</time></trkpt><trkpt lat="51.038297553277616" lon="2.375319996375143"><ele>3.0</ele><time>2026-04-10T20:01:20.001Z</time></trkpt><trkpt lat="51.0383584455457" lon="2.3754432839354815"><ele>3.0</ele><time>2026-04-10T20:01:22.001Z</time></trkpt><trkpt lat="51.038406243191794" lon="2.3755732627603847"><ele>3.2</ele><time>2026-04-10T20:01:24.001Z</time></trkpt><trkpt lat="51.0384299038411" lon="2.375712132685445"><ele>3.4</ele><time>2026-04-10T20:01:26.001Z</time></trkpt><trkpt lat="51.038473620100525" lon="2.375853452998286"><ele>3.6000000000000005</ele><time>2026-04-10T20:01:28.001Z</time></trkpt><trkpt lat="51.03853136945579" lon="2.375983987115637"><ele>3.8000000000000003</ele><time>2026-04-10T20:01:30.001Z</time></trkpt><trkpt lat="51.03857875630148" lon="2.37614016588462"><ele>4.0</ele><time>2026-04-10T20:01:32.001Z</time></trkpt><trkpt lat="51.03861312116424" lon="2.376289502820099"><ele>4.6</ele><time>2026-04-10T20:01:34.001Z</time></trkpt><trkpt lat="51.03866089172268" lon="2.376423049088719"><ele>5.2</ele><time>2026-04-10T20:01:36Z</time></trkpt><trkpt lat="51.03870495766356" lon="2.3765553410890825"><ele>5.799999999999999</ele><time>2026-04-10T20:01:38Z</time></trkpt><trkpt lat="51.03874292524138" lon="2.3766933998848994"><ele>6.3999999999999995</ele><time>2026-04-10T20:01:40Z</time></trkpt><trkpt lat="51.038641876421615" lon="2.3768647981564697"><ele>7.0</ele><time>2026-04-10T20:01:41Z</time></trkpt><trkpt lat="51.03868708137095" lon="2.3769842391780966"><ele>7.000000000000001</ele><time>2026-04-10T20:01:43Z</time></trkpt><trkpt lat="51.03873157328216" lon="2.377103165672319"><ele>7.0</ele><time>2026-04-10T20:01:45Z</time></trkpt><trkpt lat="51.0387744355653" lon="2.377223586329432"><ele>7.0</ele><time>2026-04-10T20:01:47Z</time></trkpt><trkpt lat="51.03881917223518" lon="2.3773492730505614"><ele>7.0</ele><time>2026-04-10T20:01:49Z</time></trkpt><trkpt lat="51.03886735521092" lon="2.377481476110898"><ele>7.000000000000001</ele><time>2026-04-10T20:01:51Z</time></trkpt><trkpt lat="51.038912123514045" lon="2.3775974315005066"><ele>7.0</ele><time>2026-04-10T20:01:53Z</time></trkpt><trkpt lat="51.03900762858571" lon="2.3777533100554726"><ele>6.8</ele><time>2026-04-10T20:01:55Z</time></trkpt><trkpt lat="51.039161822570286" lon="2.377633721801202"><ele>6.6</ele><time>2026-04-10T20:01:57Z</time></trkpt><trkpt lat="51.03922510309455" lon="2.377698847291692"><ele>6.3999999999999995</ele><time>2026-04-10T20:01:59Z</time></trkpt><trkpt lat="51.03928521544188" lon="2.377763445214526"><ele>6.199999999999999</ele><time>2026-04-10T20:02:01Z</time></trkpt><trkpt lat="51.039344499797565" lon="2.3778188012273396"><ele>6.0</ele><time>2026-04-10T20:02:03Z</time></trkpt><trkpt lat="51.03939772976841" lon="2.377895685593758"><ele>5.999999999999999</ele><time>2026-04-10T20:02:05Z</time></trkpt><trkpt lat="51.03947494477257" lon="2.3779568500436814"><ele>6.0</ele><time>2026-04-10T20:02:08Z</time></trkpt><trkpt lat="51.039536368226905" lon="2.378001445419712"><ele>6.0</ele><time>2026-04-10T20:02:10Z</time></trkpt><trkpt lat="51.03961232633184" lon="2.378062970794033"><ele>6.0</ele><time>2026-04-10T20:02:13Z</time></trkpt><trkpt lat="51.03967120321176" lon="2.3781095584723304"><ele>6.0</ele><time>2026-04-10T20:02:15Z</time></trkpt><trkpt lat="51.03973315536147" lon="2.378145825008754"><ele>5.999999999999999</ele><time>2026-04-10T20:02:17Z</time></trkpt><trkpt lat="51.03979996189239" lon="2.3781845727290647"><ele>6.0</ele><time>2026-04-10T20:02:19Z</time></trkpt><trkpt lat="51.03986959219633" lon="2.3782168860224884"><ele>5.833333333333333</ele><time>2026-04-10T20:02:21Z</time></trkpt><trkpt lat="51.0399513332663" lon="2.3782408953378993"><ele>5.666666666666667</ele><time>2026-04-10T20:02:23Z</time></trkpt><trkpt lat="51.04002587665204" lon="2.378273943846751"><ele>5.5</ele><time>2026-04-10T20:02:25Z</time></trkpt><trkpt lat="51.04011555008544" lon="2.3782864371169907"><ele>5.333333333333334</ele><time>2026-04-10T20:02:27Z</time></trkpt><trkpt lat="51.04020587995837" lon="2.378300012843797"><ele>5.166666666666667</ele><time>2026-04-10T20:02:29Z</time></trkpt><trkpt lat="51.040289937929295" lon="2.378309102815785"><ele>5.0</ele><time>2026-04-10T20:02:31Z</time></trkpt><trkpt lat="51.04037639572584" lon="2.3783320405665545"><ele>5.0</ele><time>2026-04-10T20:02:33Z</time></trkpt><trkpt lat="51.04046059508845" lon="2.3783538424733273"><ele>5.0</ele><time>2026-04-10T20:02:35Z</time></trkpt><trkpt lat="51.04055472524583" lon="2.3783654904171634"><ele>5.0</ele><time>2026-04-10T20:02:37Z</time></trkpt><trkpt lat="51.04064717398818" lon="2.378380083532938"><ele>5.0</ele><time>2026-04-10T20:02:39Z</time></trkpt><trkpt lat="51.04073754031736" lon="2.3784041033584877"><ele>5.0</ele><time>2026-04-10T20:02:41Z</time></trkpt><trkpt lat="51.04084413670557" lon="2.378403182510702"><ele>4.8</ele><time>2026-04-10T20:02:43Z</time></trkpt><trkpt lat="51.0409329217657" lon="2.378380979633314"><ele>4.6</ele><time>2026-04-10T20:02:45Z</time></trkpt><trkpt lat="51.041030203294056" lon="2.378361895504953"><ele>4.4</ele><time>2026-04-10T20:02:47Z</time></trkpt><trkpt lat="51.04111832662345" lon="2.378330389996416"><ele>4.2</ele><time>2026-04-10T20:02:49Z</time></trkpt><trkpt lat="51.041201979195755" lon="2.3783315298464447"><ele>4.0</ele><time>2026-04-10T20:02:51Z</time></trkpt><trkpt lat="51.04129035636187" lon="2.378333627599403"><ele>3.9999999999999996</ele><time>2026-04-10T20:02:54Z</time></trkpt><trkpt lat="51.041368990392925" lon="2.378350216100925"><ele>4.0</ele><time>2026-04-10T20:02:57Z</time></trkpt><trkpt lat="51.04144555616939" lon="2.378334131201536"><ele>4.0</ele><time>2026-04-10T20:02:59Z</time></trkpt><trkpt lat="51.041580314693704" lon="2.378352020939546"><ele>4.0</ele><time>2026-04-10T20:03:03Z</time></trkpt><trkpt lat="51.04165533489082" lon="2.3783586475359275"><ele>3.9999999999999996</ele><time>2026-04-10T20:03:04.999Z</time></trkpt><trkpt lat="51.041725613535924" lon="2.378318414319475"><ele>4.0</ele><time>2026-04-10T20:03:06.999Z</time></trkpt><trkpt lat="51.04185272247853" lon="2.3782937757821125"><ele>4.166666666666666</ele><time>2026-04-10T20:03:09.999Z</time></trkpt><trkpt lat="51.04190295152968" lon="2.3783835088719023"><ele>4.333333333333333</ele><time>2026-04-10T20:03:11.999Z</time></trkpt><trkpt lat="51.041936305610506" lon="2.378494505685037"><ele>4.5</ele><time>2026-04-10T20:03:13.999Z</time></trkpt><trkpt lat="51.04197963450221" lon="2.3785972203959154"><ele>4.666666666666667</ele><time>2026-04-10T20:03:16.999Z</time></trkpt><trkpt lat="51.042100552840296" lon="2.3786287540213618"><ele>4.833333333333334</ele><time>2026-04-10T20:03:26.001Z</time></trkpt><trkpt lat="51.04211538669" lon="2.378482266529782"><ele>5.0</ele><time>2026-04-10T20:03:38.001Z</time></trkpt><trkpt lat="51.04213626126719" lon="2.3785792580782905"><ele>5.0</ele><time>2026-04-10T20:04:08Z</time></trkpt><trkpt lat="51.04211913519654" lon="2.378690529209743"><ele>5.0</ele><time>2026-04-10T20:04:13Z</time></trkpt><trkpt lat="51.042093872255286" lon="2.3788387616798246"><ele>5.0</ele><time>2026-04-10T20:04:27Z</time></trkpt><trkpt lat="51.04212110334227" lon="2.3787484478265544"><ele>5.0</ele><time>2026-04-10T20:05:28.999Z</time></trkpt><trkpt lat="51.04210356324681" lon="2.378884311993251"><ele>5.0</ele><time>2026-04-10T20:05:40.001Z</time></trkpt><trkpt lat="51.04218640419801" lon="2.3793049032172657"><ele>7.0</ele><time>2026-04-10T20:05:51Z</time></trkpt></trkseg></trk></gpx>